JBK weather

CLOSED Berkley Municipal Heliport
Oakland, California, United States

Public forecast

Using degrees Fahrenheit for public forecast. Weather courtesy of forecast.io.

Closest aviation weather report (METAR) to Berkley Municipal Heliport

Closest report is Metropolitan Oakland International Airport, 9.6 nm (17.8 km) SSE. Retrieved 2019/12/11 07:53 UTC (21 minutes ago):

KOAK 110753Z 00000KT 5SM BR FEW013 BKN027 OVC045 12/12 A3025 RMK AO2 SLP243 T01220122 401560100

Closest aviation forecast (TAF) to Berkley Municipal Heliport

Closest forecast is Metropolitan Oakland International Airport, 9.6 nm (17.8 km) SSE. Retrieved 2019/12/11 06:36 UTC (2 hours ago):

TAF KOAK 110535Z 1106/1212 13004KT P6SM -RA FEW015 SCT030 OVC050 FM110900 12006KT P6SM VCSH BKN025 OVC050 FM111800 12007KT P6SM BKN025 BKN050 FM120000 14005KT P6SM SCT030 SCT100 FM120600 VRB03KT P6SM BKN015